createdAt,value
2023-02-09T00:00:14.381Z,206.50
2023-02-09T00:02:44.524Z,206.13
2023-02-09T00:05:13.571Z,197.07
2023-02-09T00:07:42.866Z,206.73
2023-02-09T00:10:12.089Z,217.43
2023-02-09T00:12:59.873Z,210.07
2023-02-09T00:15:29.128Z,208.82
2023-02-09T00:17:58.147Z,197.43
2023-02-09T00:20:27.449Z,193.00
2023-02-09T00:22:56.503Z,198.15
2023-02-09T00:25:25.741Z,194.10
2023-02-09T00:27:55.115Z,220.45
2023-02-09T00:30:24.580Z,209.90
2023-02-09T00:32:53.624Z,232.15
2023-02-09T00:35:23.018Z,215.48
2023-02-09T00:37:52.060Z,218.20
2023-02-09T00:40:21.440Z,221.20
2023-02-09T00:42:50.439Z,240.02
2023-02-09T00:45:19.918Z,243.27
2023-02-09T00:47:48.964Z,257.38
2023-02-09T00:50:18.480Z,266.63
2023-02-09T00:52:47.594Z,264.85
2023-02-09T00:55:18.223Z,282.70
2023-02-09T00:57:47.457Z,257.42
2023-02-09T01:00:19.551Z,261.02
2023-02-09T01:02:50.797Z,249.18
2023-02-09T01:05:23.709Z,259.17
2023-02-09T01:07:57.891Z,234.55
2023-02-09T01:10:29.498Z,222.95
2023-02-09T01:13:01.678Z,224.10
2023-02-09T01:15:32.984Z,222.93
2023-02-09T01:18:04.030Z,202.25
2023-02-09T01:20:34.370Z,199.77
2023-02-09T01:23:04.900Z,219.05
2023-02-09T01:25:34.917Z,187.02
2023-02-09T01:28:04.948Z,171.82
2023-02-09T01:30:36.257Z,148.75
2023-02-09T01:33:06.324Z,141.70
2023-02-09T01:35:36.215Z,121.70
2023-02-09T01:38:06.322Z,127.00
2023-02-09T01:40:37.760Z,142.40
2023-02-09T01:43:09.029Z,183.43
2023-02-09T01:45:56.186Z,188.82
2023-02-09T01:48:30.436Z,230.10
2023-02-09T01:51:03.079Z,271.88
2023-02-09T01:56:26.006Z,174.85
2023-02-09T01:58:57.371Z,156.20
2023-02-09T02:01:28.580Z,163.35
2023-02-09T02:03:58.781Z,167.40
2023-02-09T02:06:28.685Z,174.90
2023-02-09T02:09:04.569Z,207.48
2023-02-09T02:11:34.521Z,235.30
2023-02-09T02:14:04.160Z,247.18
2023-02-09T02:16:50.689Z,258.65
2023-02-09T02:20:01.259Z,241.23
2023-02-09T02:23:19.747Z,213.45
2023-02-09T02:26:21.448Z,199.43
2023-02-09T02:29:08.106Z,176.23
2023-02-09T02:32:03.937Z,161.10
2023-02-09T02:35:09.569Z,165.98
2023-02-09T02:38:03.792Z,236.00
2023-02-09T02:40:54.138Z,178.82
2023-02-09T02:43:54.729Z,155.23
2023-02-09T02:46:50.365Z,158.30
2023-02-09T02:49:44.136Z,151.30
2023-02-09T02:52:14.008Z,134.88
2023-02-09T02:54:51.386Z,151.23
2023-02-09T02:57:25.088Z,142.35
2023-02-09T03:00:08.457Z,134.05
2023-02-09T03:02:46.205Z,141.50
2023-02-09T03:05:18.155Z,139.35
2023-02-09T03:07:48.282Z,149.18
2023-02-09T03:10:36.252Z,140.60
2023-02-09T03:13:14.076Z,135.95
2023-02-09T03:16:20.535Z,134.23
2023-02-09T03:19:03.148Z,139.30
2023-02-09T03:21:38.873Z,134.32
2023-02-09T03:24:31.233Z,141.40
2023-02-09T03:27:11.748Z,130.18
2023-02-09T03:29:45.599Z,129.68
2023-02-09T03:32:17.349Z,134.75
2023-02-09T03:34:47.952Z,121.63
2023-02-09T03:37:19.341Z,135.00
2023-02-09T03:39:51.053Z,124.65
2023-02-09T03:42:21.977Z,134.17
2023-02-09T03:44:51.885Z,145.00
2023-02-09T03:47:21.540Z,133.48
2023-02-09T03:49:51.678Z,136.43
2023-02-09T03:52:21.762Z,146.45
2023-02-09T03:54:51.850Z,145.38
2023-02-09T03:57:21.881Z,135.55
2023-02-09T03:59:51.718Z,145.35
2023-02-09T04:02:21.724Z,128.25
2023-02-09T04:04:52.073Z,141.77
2023-02-09T04:07:28.002Z,138.98
2023-02-09T04:09:58.013Z,141.70
2023-02-09T04:12:27.867Z,141.23
2023-02-09T04:14:57.856Z,148.90
2023-02-09T04:17:27.813Z,143.85
2023-02-09T04:19:57.848Z,126.90
2023-02-09T04:22:28.408Z,126.35
2023-02-09T04:24:58.458Z,121.00
2023-02-09T04:27:29.685Z,127.00
2023-02-09T04:29:59.913Z,123.13
2023-02-09T04:32:30.032Z,131.38
2023-02-09T04:34:59.967Z,203.60
2023-02-09T04:37:29.947Z,131.93
2023-02-09T04:39:59.525Z,119.60
2023-02-09T04:42:30.066Z,109.80
2023-02-09T04:45:00.669Z,121.10
2023-02-09T04:47:30.878Z,102.65
2023-02-09T04:50:00.968Z,125.68
2023-02-09T04:52:31.069Z,102.60
2023-02-09T04:55:01.289Z,111.10
2023-02-09T04:57:50.122Z,138.38
2023-02-09T05:00:21.587Z,108.20
2023-02-09T05:02:51.558Z,103.97
2023-02-09T05:05:22.340Z,104.75
2023-02-09T05:07:52.526Z,97.50
2023-02-09T05:10:22.703Z,87.63
2023-02-09T05:12:53.881Z,93.15
2023-02-09T05:15:23.942Z,86.88
2023-02-09T05:17:53.950Z,101.43
2023-02-09T05:20:23.639Z,99.45
2023-02-09T05:22:53.770Z,97.22
2023-02-09T05:25:23.883Z,92.72
2023-02-09T05:27:53.974Z,91.85
2023-02-09T05:30:24.120Z,92.75
2023-02-09T05:32:54.284Z,81.25
2023-02-09T05:35:24.208Z,81.10
2023-02-09T05:37:54.347Z,83.10
2023-02-09T05:40:24.544Z,78.88
2023-02-09T05:42:54.682Z,88.20
2023-02-09T05:45:24.927Z,80.53
2023-02-09T05:47:54.670Z,75.63
2023-02-09T05:50:24.988Z,75.13
2023-02-09T05:53:00.237Z,74.93
2023-02-09T05:55:30.403Z,74.85
2023-02-09T05:58:00.523Z,86.15
2023-02-09T06:00:30.968Z,81.68
2023-02-09T06:03:01.253Z,74.80
2023-02-09T06:05:31.230Z,99.03
2023-02-09T06:08:01.281Z,77.22
2023-02-09T06:10:31.012Z,82.82
2023-02-09T06:13:01.116Z,80.38
2023-02-09T06:15:31.263Z,82.00
2023-02-09T06:18:02.623Z,83.60
2023-02-09T06:20:32.745Z,89.07
2023-02-09T06:23:02.872Z,77.22
2023-02-09T06:25:32.767Z,87.38
2023-02-09T06:28:03.550Z,76.97
2023-02-09T06:30:33.434Z,74.55
2023-02-09T06:33:02.914Z,80.13
2023-02-09T06:35:33.132Z,77.72
2023-02-09T06:38:03.259Z,81.72
2023-02-09T06:40:33.352Z,72.40
2023-02-09T06:43:03.964Z,87.38
2023-02-09T06:45:34.145Z,69.38
2023-02-09T09:42:03.216Z,105.60
2023-02-09T09:44:38.751Z,104.93
2023-02-09T09:47:13.592Z,129.00
2023-02-09T09:49:42.970Z,138.90
2023-02-09T09:52:40.328Z,168.48
2023-02-09T09:55:16.152Z,158.30
2023-02-09T09:58:40.530Z,149.32
2023-02-09T10:01:18.853Z,146.77
2023-02-09T10:03:48.330Z,156.90
2023-02-09T10:06:23.030Z,145.73
2023-02-09T10:09:35.982Z,158.57
2023-02-09T10:12:26.615Z,144.25
2023-02-09T10:14:56.017Z,179.30
2023-02-09T10:17:24.872Z,185.13
2023-02-09T10:20:08.490Z,165.13
2023-02-09T10:22:37.754Z,155.32
2023-02-09T10:25:49.879Z,154.13
2023-02-09T10:28:27.764Z,166.75
2023-02-09T10:31:00.051Z,145.55
2023-02-09T10:33:39.279Z,141.80
2023-02-09T10:36:22.829Z,130.90
2023-02-09T10:38:52.617Z,144.18
2023-02-09T10:41:23.896Z,174.63
2023-02-09T10:43:54.036Z,132.02
2023-02-09T10:46:23.759Z,148.68
2023-02-09T10:48:52.572Z,127.47
2023-02-09T10:51:34.791Z,127.90
2023-02-09T10:54:08.282Z,133.35
2023-02-09T10:56:43.961Z,124.53
2023-02-09T10:59:25.847Z,136.27
2023-02-09T11:02:03.510Z,120.72
2023-02-09T11:04:40.045Z,110.90
2023-02-09T11:07:16.257Z,109.93
2023-02-09T11:09:50.130Z,108.35
2023-02-09T11:12:21.444Z,117.35
2023-02-09T11:14:50.746Z,111.50
2023-02-09T11:17:37.565Z,100.95
2023-02-09T11:20:19.223Z,107.97
2023-02-09T11:22:48.507Z,112.65
2023-02-09T11:25:26.717Z,122.07
2023-02-09T11:28:25.029Z,101.72
2023-02-09T11:31:18.128Z,106.13
2023-02-09T11:34:08.947Z,117.05
2023-02-09T11:36:57.913Z,115.57
2023-02-09T11:39:40.704Z,97.97
2023-02-09T11:45:32.007Z,105.40
2023-02-09T11:48:12.416Z,115.10
2023-02-09T11:51:08.744Z,106.65
2023-02-09T11:53:44.244Z,122.95
2023-02-09T11:56:19.327Z,104.22
2023-02-09T11:59:15.806Z,104.53
2023-02-09T12:01:51.250Z,111.30
2023-02-09T12:04:38.904Z,105.55
2023-02-09T12:07:32.808Z,107.70
2023-02-09T12:10:04.983Z,108.53
2023-02-09T12:13:00.134Z,122.38
2023-02-09T12:15:50.983Z,103.95
2023-02-09T12:18:27.259Z,117.05
2023-02-09T12:21:02.664Z,89.70
2023-02-09T12:23:39.051Z,101.93
2023-02-09T12:26:17.728Z,116.15
2023-02-09T12:29:04.556Z,140.48
2023-02-09T12:32:08.895Z,97.35
2023-02-09T12:34:47.631Z,108.97
2023-02-09T12:37:27.455Z,114.90
2023-02-09T12:40:19.376Z,107.10
2023-02-09T12:43:11.690Z,117.10
2023-02-09T12:45:44.017Z,98.83
2023-02-09T12:48:16.350Z,92.85
2023-02-09T12:50:47.468Z,97.55
2023-02-09T12:53:25.802Z,97.38
2023-02-09T12:56:10.352Z,103.90
2023-02-09T12:58:44.981Z,106.75
2023-02-09T13:01:16.587Z,87.20
2023-02-09T13:04:04.642Z,94.37
2023-02-09T13:06:52.667Z,89.47
2023-02-09T13:09:30.408Z,93.75
2023-02-09T13:12:05.994Z,98.68
2023-02-09T13:14:35.314Z,88.85
2023-02-09T13:17:10.128Z,85.60
2023-02-09T13:20:12.478Z,83.18
2023-02-09T13:23:07.675Z,79.13
2023-02-09T13:25:40.124Z,72.05
2023-02-09T13:30:49.078Z,95.20
2023-02-09T13:33:49.646Z,90.60
2023-02-09T13:37:00.938Z,96.18
2023-02-09T13:39:40.675Z,80.60
2023-02-09T13:42:27.085Z,86.85
2023-02-09T13:45:00.810Z,76.45
2023-02-09T13:47:30.432Z,75.72
2023-02-09T13:50:24.695Z,91.15
2023-02-09T13:52:54.103Z,86.18
2023-02-09T13:55:24.428Z,71.22
2023-02-09T13:58:01.905Z,80.03
2023-02-09T14:00:51.063Z,93.20
2023-02-09T14:03:27.698Z,94.22
2023-02-09T14:06:16.160Z,113.10
2023-02-09T14:08:48.770Z,106.72
2023-02-09T14:11:42.656Z,144.93
2023-02-09T14:14:16.686Z,133.75
2023-02-09T14:16:53.504Z,127.60
2023-02-09T14:19:33.719Z,132.05
2023-02-09T14:22:03.024Z,142.80
2023-02-09T14:24:52.514Z,144.95
2023-02-09T14:27:27.590Z,122.90
2023-02-09T14:29:57.820Z,129.25
2023-02-09T14:32:37.321Z,142.38
2023-02-09T14:35:40.395Z,157.13
2023-02-09T14:38:48.777Z,164.60
2023-02-09T14:41:34.099Z,151.98
2023-02-09T14:44:09.299Z,157.63
2023-02-09T14:46:59.367Z,165.18
2023-02-09T14:49:30.304Z,162.10
2023-02-09T14:52:14.781Z,138.10
2023-02-09T14:54:49.636Z,154.38
2023-02-09T14:57:19.186Z,181.38
2023-02-09T14:59:48.038Z,142.88
2023-02-09T15:02:21.251Z,149.38
2023-02-09T15:04:50.536Z,147.80
2023-02-09T15:07:36.543Z,149.60
2023-02-09T15:10:09.173Z,142.93
2023-02-09T15:12:38.299Z,175.95
2023-02-09T15:15:07.296Z,163.85
2023-02-09T15:17:36.652Z,166.38
2023-02-09T15:20:05.797Z,170.55
2023-02-09T15:22:34.694Z,158.05
2023-02-09T15:25:03.663Z,164.45
2023-02-09T15:28:03.991Z,178.20
2023-02-09T15:30:35.905Z,167.80
2023-02-09T15:33:07.436Z,162.15
2023-02-09T15:35:36.644Z,165.00
2023-02-09T15:38:05.528Z,163.55
2023-02-09T15:41:04.020Z,179.20
2023-02-09T15:43:51.501Z,161.45
2023-02-09T15:46:39.441Z,163.07
2023-02-09T15:49:08.686Z,146.73
2023-02-09T15:51:40.403Z,149.43
2023-02-09T15:54:24.041Z,145.65
2023-02-09T15:56:53.659Z,150.90
2023-02-09T15:59:24.927Z,163.45
2023-02-09T16:01:54.437Z,140.43
2023-02-09T16:04:23.378Z,150.98
2023-02-09T16:06:54.762Z,145.85
2023-02-09T16:09:28.557Z,148.48
2023-02-09T16:11:58.233Z,158.93
2023-02-09T16:14:28.470Z,174.23
2023-02-09T16:16:57.456Z,150.38
2023-02-09T16:19:26.293Z,159.05
2023-02-09T16:21:58.908Z,145.93
2023-02-09T16:24:43.031Z,147.73
2023-02-09T16:27:28.960Z,137.70
2023-02-09T16:29:59.127Z,143.10
2023-02-09T16:32:29.522Z,147.80
2023-02-09T16:35:11.120Z,149.60
2023-02-09T16:37:48.095Z,144.75
2023-02-09T16:40:26.022Z,147.10
2023-02-09T16:42:56.383Z,154.73
2023-02-09T16:45:26.977Z,153.45
2023-02-09T16:47:59.355Z,145.13
2023-02-09T16:50:53.948Z,177.18
2023-02-09T16:53:34.196Z,173.82
2023-02-09T16:56:11.066Z,160.43
2023-02-09T16:58:40.987Z,186.02
2023-02-09T17:01:18.409Z,170.48
2023-02-09T17:03:58.036Z,141.32
2023-02-09T17:06:31.305Z,138.07
2023-02-09T17:09:00.955Z,142.27
2023-02-09T17:11:30.331Z,156.25
2023-02-09T17:13:59.742Z,133.98
2023-02-09T17:16:34.202Z,171.32
2023-02-09T17:19:04.906Z,172.27
2023-02-09T17:21:40.482Z,172.25
2023-02-09T17:24:27.738Z,147.88
2023-02-09T17:26:57.332Z,156.95
2023-02-09T17:29:26.756Z,146.73
2023-02-09T17:31:55.900Z,137.88
2023-02-09T17:34:28.088Z,136.57
2023-02-09T17:36:58.225Z,144.15
2023-02-09T17:39:28.151Z,134.23
2023-02-09T17:41:59.739Z,143.80
2023-02-09T17:44:45.123Z,133.52
2023-02-09T17:47:21.044Z,346.60
2023-02-09T17:49:50.530Z,439.35
2023-02-09T17:52:21.125Z,730.97
2023-02-09T17:54:52.015Z,471.48
2023-02-09T17:57:22.052Z,231.00
2023-02-09T17:59:51.332Z,252.35
2023-02-09T18:02:21.512Z,185.52
2023-02-09T18:04:50.816Z,155.18
2023-02-09T18:07:21.634Z,145.88
2023-02-09T18:09:51.317Z,141.52
2023-02-09T18:12:23.710Z,127.82
2023-02-09T18:14:53.020Z,124.85
2023-02-09T18:17:22.151Z,121.10
2023-02-09T18:19:51.611Z,130.35
2023-02-09T18:22:21.053Z,133.63
2023-02-09T18:24:51.563Z,145.05
2023-02-09T18:27:22.023Z,154.23
2023-02-09T18:29:51.363Z,156.55
2023-02-09T18:32:21.966Z,150.05
2023-02-09T18:34:51.899Z,163.65
2023-02-09T18:37:20.852Z,168.55
2023-02-09T18:39:50.269Z,138.98
2023-02-09T18:42:19.322Z,140.20
2023-02-09T18:44:48.625Z,136.32
2023-02-09T18:47:17.598Z,142.73
2023-02-09T18:49:46.852Z,135.13
2023-02-09T18:52:18.129Z,140.43
2023-02-09T18:54:47.782Z,135.82
2023-02-09T18:57:16.603Z,142.85
2023-02-09T18:59:47.856Z,136.95
2023-02-09T19:02:17.377Z,142.80
2023-02-09T19:04:46.415Z,146.43
2023-02-09T19:07:17.134Z,141.93
2023-02-09T19:09:46.910Z,148.75
2023-02-09T19:12:15.800Z,144.38
2023-02-09T19:14:47.542Z,154.80
2023-02-09T19:17:19.433Z,130.47
2023-02-09T19:19:49.909Z,123.47
2023-02-09T19:22:21.930Z,133.25
2023-02-09T19:24:53.277Z,120.18
2023-02-09T19:27:22.641Z,152.05
2023-02-09T19:29:55.855Z,139.48
2023-02-09T19:32:27.329Z,133.80
2023-02-09T19:34:56.783Z,146.15
2023-02-09T19:37:25.753Z,135.35
2023-02-09T19:40:04.617Z,141.07
2023-02-09T19:42:34.966Z,153.48
2023-02-09T19:45:04.441Z,131.70
2023-02-09T19:47:33.477Z,122.43
2023-02-09T19:50:02.910Z,138.23
2023-02-09T19:52:32.030Z,119.40
2023-02-09T19:55:01.365Z,127.07
2023-02-09T19:57:30.492Z,136.23
2023-02-09T19:59:59.560Z,119.88
2023-02-09T20:02:28.629Z,133.75
2023-02-09T20:04:57.750Z,133.25
2023-02-09T20:07:27.077Z,136.50
2023-02-09T20:09:58.072Z,122.18
2023-02-09T20:12:27.456Z,126.70
2023-02-09T20:14:56.578Z,115.15
2023-02-09T20:17:26.105Z,120.45
2023-02-09T20:19:55.797Z,132.23
2023-02-09T20:22:24.940Z,123.20
2023-02-09T20:24:54.450Z,106.97
2023-02-09T20:27:24.824Z,116.07
2023-02-09T20:29:58.159Z,118.03
2023-02-09T20:32:27.369Z,105.45
2023-02-09T20:34:56.636Z,116.05
2023-02-09T20:37:26.001Z,107.82
2023-02-09T20:39:55.384Z,112.45
2023-02-09T20:42:42.498Z,109.15
2023-02-09T20:45:42.782Z,112.60
2023-02-09T20:48:12.271Z,115.63
2023-02-09T20:50:41.225Z,110.00
2023-02-09T20:53:10.669Z,117.07
2023-02-09T20:55:39.452Z,99.70
2023-02-09T20:58:09.489Z,99.15
2023-02-09T21:00:39.000Z,112.93
2023-02-09T21:03:08.541Z,96.30
2023-02-09T21:05:37.429Z,88.32
2023-02-09T21:08:08.730Z,107.60
2023-02-09T21:10:39.283Z,102.38
2023-02-09T21:13:09.766Z,102.88
2023-02-09T21:15:43.389Z,94.03
2023-02-09T21:18:12.975Z,99.20
2023-02-09T21:20:41.815Z,105.72
2023-02-09T21:23:11.304Z,98.00
2023-02-09T21:25:40.202Z,105.38
2023-02-09T21:28:09.619Z,96.35
2023-02-09T21:30:43.519Z,101.03
2023-02-09T21:33:12.639Z,86.72
2023-02-09T21:35:42.314Z,101.55
2023-02-09T21:38:11.467Z,118.43
2023-02-09T21:40:40.506Z,97.63
2023-02-09T21:43:09.720Z,100.47
2023-02-09T21:45:41.626Z,106.85
2023-02-09T21:48:11.036Z,96.55
2023-02-09T21:50:40.562Z,96.40
2023-02-09T21:53:09.960Z,101.00
2023-02-09T21:55:38.923Z,89.53
2023-02-09T21:58:08.004Z,109.80
2023-02-09T22:00:37.046Z,94.97
2023-02-09T22:03:06.284Z,97.72
2023-02-09T22:05:35.181Z,85.90
2023-02-09T22:08:04.576Z,84.63
2023-02-09T22:10:33.452Z,82.38
2023-02-09T22:13:09.341Z,93.45
2023-02-09T22:15:42.210Z,81.53
2023-02-09T22:18:11.881Z,92.63
2023-02-09T22:20:45.674Z,85.25
2023-02-09T22:23:15.620Z,90.70
2023-02-09T22:25:44.778Z,78.40
2023-02-09T22:28:14.890Z,107.40
2023-02-09T22:30:44.423Z,97.72
2023-02-09T22:33:13.675Z,109.47
2023-02-09T22:35:44.017Z,84.45
2023-02-09T22:38:13.561Z,82.03
2023-02-09T22:40:42.605Z,82.03
2023-02-09T22:43:11.823Z,81.18
2023-02-09T22:45:41.324Z,86.20
2023-02-09T22:48:12.223Z,81.53
2023-02-09T22:50:41.869Z,88.22
2023-02-09T22:53:10.999Z,88.93
2023-02-09T22:55:40.390Z,86.25
2023-02-09T22:58:09.738Z,77.90
2023-02-09T23:00:39.088Z,85.10
2023-02-09T23:03:08.261Z,93.75
2023-02-09T23:05:37.613Z,69.97
2023-02-09T23:08:06.922Z,80.28
2023-02-09T23:10:36.038Z,99.22
2023-02-09T23:13:04.822Z,79.45
2023-02-09T23:15:34.290Z,82.47
2023-02-09T23:18:03.256Z,83.57
2023-02-09T23:20:32.292Z,85.20
2023-02-09T23:23:07.366Z,94.30
2023-02-09T23:25:36.919Z,89.38
2023-02-09T23:28:05.972Z,88.63
2023-02-09T23:30:35.622Z,91.80
2023-02-09T23:33:04.735Z,90.53
2023-02-09T23:35:33.770Z,83.53
2023-02-09T23:38:02.723Z,90.55
2023-02-09T23:40:32.597Z,89.30
2023-02-09T23:43:01.717Z,78.47
2023-02-09T23:45:31.060Z,90.78
2023-02-09T23:48:00.272Z,91.90
2023-02-09T23:50:29.924Z,86.13
2023-02-09T23:52:58.999Z,90.75
2023-02-09T23:55:28.393Z,105.53
2023-02-09T23:57:57.357Z,87.38
